Time;durP1;ratioP1;P1;durP2;ratioP2;P2;SDS_P1;SDS_P2;PMS_P1;PMS_P2;Temp;Humidity;BMP_temperature;BMP_pressure;BME280_temperature;BME280_humidity;BME280_pressure;Samples;Min_cycle;Max_cycle;Signal;HPM_P1;HPM_P2
2022/01/31 00:00:00;;;;;;;8.70;3.85;;;;;;;4.25;65.41;97647.81;4926359;28;20205;-87
2022/01/31 00:02:26;;;;;;;8.52;3.15;;;;;;;4.26;65.19;97659.69;4929757;28;20184;-87
2022/01/31 00:04:51;;;;;;;10.38;4.40;;;;;;;4.17;65.83;97653.09;4948682;28;20273;-87
2022/01/31 00:07:16;;;;;;;9.70;3.40;;;;;;;4.20;65.93;97644.19;4922581;28;20680;-87
2022/01/31 00:09:43;;;;;;;11.45;3.90;;;;;;;4.19;66.20;97634.88;4931941;28;20634;-86
2022/01/31 00:12:17;;;;;;;7.68;3.40;;;;;;;4.22;65.65;97648.19;4931738;28;20097;-86
2022/01/31 00:14:45;;;;;;;14.27;5.07;;;;;;;4.28;65.23;97649.19;4948010;28;20287;-86
2022/01/31 00:17:11;;;;;;;9.63;3.80;;;;;;;4.27;65.11;97645.81;4929359;28;20173;-86
2022/01/31 00:19:38;;;;;;;9.68;3.72;;;;;;;4.27;65.29;97611.53;4931876;28;20183;-86
2022/01/31 00:22:05;;;;;;;12.68;3.72;;;;;;;4.19;65.11;97585.91;4928645;28;20280;-88
2022/01/31 00:24:31;;;;;;;12.40;4.18;;;;;;;4.24;65.34;97597.22;4945421;28;20279;-86
2022/01/31 00:26:56;;;;;;;10.27;3.65;;;;;;;4.17;65.59;97575.00;4946638;28;20732;-87
2022/01/31 00:29:22;;;;;;;10.32;3.90;;;;;;;4.25;65.57;97595.44;4948973;28;20262;-86
2022/01/31 00:31:47;;;;;;;8.65;3.60;;;;;;;4.23;65.50;97589.69;4930837;28;20600;-86
2022/01/31 00:34:13;;;;;;;26.58;5.20;;;;;;;4.19;65.55;97573.81;4934178;28;20298;-87
2022/01/31 00:36:38;;;;;;;13.82;3.67;;;;;;;4.17;65.62;97559.53;4947266;28;20209;-86
2022/01/31 00:39:04;;;;;;;10.52;3.65;;;;;;;4.26;65.75;97546.28;4930365;28;20223;-87
2022/01/31 00:41:30;;;;;;;13.05;3.30;;;;;;;4.30;65.34;97519.13;4933354;28;20308;-87
2022/01/31 00:44:01;;;;;;;14.27;3.35;;;;;;;4.30;65.94;97508.00;4935937;28;20717;-85
2022/01/31 00:46:35;;;;;;;12.85;4.28;;;;;;;4.35;64.62;97510.78;4952551;28;20226;-87
2022/01/31 00:49:00;;;;;;;11.13;3.20;;;;;;;4.15;65.39;97474.69;4952002;28;20231;-86
2022/01/31 00:51:26;;;;;;;7.97;3.50;;;;;;;4.31;65.56;97491.56;4952319;28;20693;-86
2022/01/31 00:53:51;;;;;;;10.07;3.67;;;;;;;4.20;66.16;97464.59;4935580;28;20296;-86
2022/01/31 00:56:16;;;;;;;9.30;3.50;;;;;;;4.40;65.63;97474.13;4916956;28;20174;-86
2022/01/31 00:58:42;;;;;;;8.02;3.10;;;;;;;4.32;65.39;97449.34;4923119;28;20279;-86
2022/01/31 01:01:07;;;;;;;7.00;2.80;;;;;;;4.22;65.95;97426.53;4916266;28;20165;-86
2022/01/31 01:03:32;;;;;;;9.52;3.05;;;;;;;4.38;65.46;97429.72;4951782;28;20208;-86
2022/01/31 01:05:58;;;;;;;8.38;2.78;;;;;;;4.42;64.87;97418.00;4935637;28;20200;-86
2022/01/31 01:08:23;;;;;;;7.25;2.65;;;;;;;4.29;65.03;97383.50;4969444;28;20216;-87
2022/01/31 01:10:49;;;;;;;9.32;2.92;;;;;;;4.41;65.03;97385.50;4952418;28;20211;-86
2022/01/31 01:13:14;;;;;;;10.57;3.30;;;;;;;4.26;65.71;97386.47;4935671;28;20173;-86
2022/01/31 01:15:39;;;;;;;8.25;3.00;;;;;;;4.40;65.06;97383.91;4932999;28;20178;-85
2022/01/31 01:18:05;;;;;;;9.88;3.00;;;;;;;4.38;64.87;97365.25;4968044;28;20107;-86
2022/01/31 01:20:30;;;;;;;12.50;3.40;;;;;;;4.18;65.86;97327.41;4951715;28;20278;-85
2022/01/31 01:22:56;;;;;;;9.07;3.35;;;;;;;4.30;65.52;97325.81;4935557;28;20204;-86
2022/01/31 01:25:21;;;;;;;9.60;3.05;;;;;;;4.40;64.51;97332.34;4927302;28;20278;-86
2022/01/31 01:27:50;;;;;;;11.00;4.03;;;;;;;4.47;64.34;97351.16;4944301;28;20699;-86
2022/01/31 01:30:16;;;;;;;9.07;2.78;;;;;;;4.53;64.67;97352.16;4968319;28;20289;-86
2022/01/31 01:35:13;;;;;;;8.18;3.13;;;;;;;4.37;65.10;97312.94;4967476;28;20395;-87
2022/01/31 01:37:39;;;;;;;10.13;2.75;;;;;;;4.44;64.95;97318.84;4922169;28;20198;-86
2022/01/31 01:40:05;;;;;;;8.20;3.20;;;;;;;4.49;65.19;97306.16;4934782;28;20110;-86
2022/01/31 01:42:31;;;;;;;9.50;3.50;;;;;;;4.31;65.56;97304.19;4946548;28;20331;-86
2022/01/31 01:44:56;;;;;;;7.28;2.40;;;;;;;4.50;65.70;97291.47;4944164;28;20346;-85
2022/01/31 01:47:23;;;;;;;8.57;2.67;;;;;;;4.46;65.63;97270.47;4931381;28;20227;-85
2022/01/31 01:49:50;;;;;;;13.88;4.13;;;;;;;4.51;65.17;97259.53;4951607;28;20767;-85
2022/01/31 01:52:16;;;;;;;8.00;3.05;;;;;;;4.45;65.15;97252.63;4930534;28;20188;-85
2022/01/31 01:54:42;;;;;;;8.30;3.05;;;;;;;4.36;65.16;97253.84;4947868;28;20189;-86
2022/01/31 01:57:07;;;;;;;6.95;3.42;;;;;;;4.20;65.62;97224.94;4946473;28;20106;-85
2022/01/31 01:59:35;;;;;;;9.52;3.22;;;;;;;4.32;65.28;97212.22;4947527;28;20308;-86
2022/01/31 02:02:09;;;;;;;10.63;3.38;;;;;;;4.14;66.11;97207.69;4948666;28;20207;-87
2022/01/31 02:04:35;;;;;;;10.63;3.72;;;;;;;4.25;65.44;97203.69;4931321;28;20251;-85
2022/01/31 02:07:00;;;;;;;9.35;2.95;;;;;;;4.40;65.40;97196.50;4967481;28;20281;-85
2022/01/31 02:09:30;;;;;;;8.63;3.70;;;;;;;4.51;65.50;97197.66;4947878;28;20365;-85
2022/01/31 02:11:57;;;;;;;10.82;3.58;;;;;;;4.45;65.99;97206.22;4922932;28;20267;-85
2022/01/31 02:14:26;;;;;;;8.20;3.05;;;;;;;4.27;66.11;97171.56;4949464;28;20119;-85
2022/01/31 02:16:52;;;;;;;13.93;4.30;;;;;;;4.30;66.57;97178.91;4951619;28;20761;-85
2022/01/31 02:19:18;;;;;;;8.00;3.63;;;;;;;4.20;66.78;97163.06;4934718;28;20646;-85
2022/01/31 02:21:47;;;;;;;9.73;3.55;;;;;;;4.36;66.31;97166.19;4935511;28;20587;-84
2022/01/31 02:24:13;;;;;;;8.52;3.17;;;;;;;4.23;66.86;97146.41;4952356;28;20264;-85
2022/01/31 02:26:38;;;;;;;9.13;3.70;;;;;;;4.36;66.49;97135.25;4968738;28;20719;-83
2022/01/31 02:29:05;;;;;;;7.68;3.97;;;;;;;4.56;66.13;97125.66;4952164;28;20765;-84
2022/01/31 02:31:31;;;;;;;11.82;4.18;;;;;;;4.50;65.91;97100.69;4931982;28;20172;-84
2022/01/31 02:33:56;;;;;;;8.27;4.07;;;;;;;4.31;67.31;97084.31;4951787;28;20308;-85
2022/01/31 02:36:21;;;;;;;10.38;4.78;;;;;;;4.34;66.89;97090.88;4919397;28;20703;-85
2022/01/31 02:38:47;;;;;;;13.55;4.38;;;;;;;4.59;66.47;97070.28;4945085;28;20262;-84
2022/01/31 02:41:12;;;;;;;10.35;4.70;;;;;;;4.48;66.42;97056.28;4935585;28;20347;-84
2022/01/31 02:43:37;;;;;;;11.25;4.35;;;;;;;4.43;66.89;97032.91;4934765;28;20702;-86
2022/01/31 02:46:03;;;;;;;12.95;5.07;;;;;;;4.39;66.62;97011.13;4947581;28;20212;-84
2022/01/31 02:48:31;;;;;;;12.00;4.35;;;;;;;4.51;66.36;97019.78;4951656;28;20250;-84
2022/01/31 02:50:57;;;;;;;10.07;5.22;;;;;;;4.45;66.72;97028.31;4934006;28;20224;-85
2022/01/31 02:53:31;;;;;;;11.10;4.43;;;;;;;4.47;66.63;97052.09;4969252;28;20165;-85
2022/01/31 02:55:59;;;;;;;10.77;4.93;;;;;;;4.46;67.05;97056.47;4957371;28;20279;-84
2022/01/31 02:58:26;;;;;;;17.17;5.25;;;;;;;4.41;67.07;97086.47;4967524;28;20229;-85
2022/01/31 03:00:53;;;;;;;13.98;5.65;;;;;;;4.55;66.49;97080.22;4951976;28;20646;-84
2022/01/31 03:03:19;;;;;;;10.55;4.80;;;;;;;4.63;66.23;97071.47;4951986;28;20267;-85
2022/01/31 03:05:45;;;;;;;11.13;5.45;;;;;;;4.66;66.34;97078.75;4934299;28;20384;-85
2022/01/31 03:08:10;;;;;;;9.50;4.85;;;;;;;4.71;66.12;97073.75;4935313;28;20177;-85
2022/01/31 03:10:35;;;;;;;14.20;5.32;;;;;;;4.62;66.12;97070.66;4952038;28;20290;-85
2022/01/31 03:13:02;;;;;;;12.95;5.80;;;;;;;4.51;66.83;97058.44;4935451;28;20256;-84
2022/01/31 03:15:27;;;;;;;14.60;6.72;;;;;;;4.55;66.91;97051.84;4935723;28;20708;-85
2022/01/31 03:17:53;;;;;;;11.18;4.95;;;;;;;4.62;66.63;97060.34;4948889;28;20208;-84
2022/01/31 03:20:20;;;;;;;11.88;5.00;;;;;;;4.67;66.29;97049.41;4951835;28;20690;-84
2022/01/31 03:22:46;;;;;;;14.85;5.57;;;;;;;4.68;66.22;97045.84;4938267;28;20196;-86
2022/01/31 03:25:12;;;;;;;10.55;4.25;;;;;;;4.72;66.43;97033.31;4967898;28;20590;-84
2022/01/31 03:27:37;;;;;;;12.13;4.88;;;;;;;4.74;66.16;97044.97;4949296;28;20275;-84
2022/01/31 03:30:08;;;;;;;14.15;5.13;;;;;;;4.14;67.92;97032.47;4967268;28;20201;-84
2022/01/31 03:32:34;;;;;;;13.43;5.32;;;;;;;4.57;67.39;97025.88;4934605;28;20162;-85
2022/01/31 03:35:01;;;;;;;9.82;4.88;;;;;;;4.66;67.04;97033.16;4933990;28;20184;-84
2022/01/31 03:37:26;;;;;;;13.82;5.32;;;;;;;4.67;66.94;97023.63;4950947;28;20296;-84
2022/01/31 03:39:52;;;;;;;15.82;5.30;;;;;;;4.60;67.14;97010.75;4935035;28;20260;-84
2022/01/31 03:42:18;;;;;;;12.43;4.93;;;;;;;4.73;66.74;97001.34;4948185;28;20174;-85
2022/01/31 03:44:47;;;;;;;16.10;5.03;;;;;;;4.56;67.12;96983.03;4916113;28;20234;-85
2022/01/31 03:47:14;;;;;;;15.60;5.47;;;;;;;4.62;67.09;96982.97;4948571;28;20152;-84
2022/01/31 03:49:40;;;;;;;11.82;4.32;;;;;;;4.68;67.11;96978.78;4932196;28;20240;-84
2022/01/31 03:52:05;;;;;;;13.52;4.60;;;;;;;4.67;67.15;96972.81;4948282;28;20262;-85
2022/01/31 03:54:31;;;;;;;10.95;4.28;;;;;;;4.64;67.59;96950.06;4950649;28;20192;-84
2022/01/31 03:56:56;;;;;;;10.25;4.95;;;;;;;4.78;67.47;96937.81;4950056;28;20197;-84
2022/01/31 03:59:21;;;;;;;9.57;4.40;;;;;;;4.93;67.08;96934.88;4950283;28;20275;-84
2022/01/31 04:01:47;;;;;;;13.80;4.35;;;;;;;4.87;66.72;96926.22;4950921;28;20334;-84
2022/01/31 04:04:13;;;;;;;13.18;4.30;;;;;;;4.80;67.09;96919.56;4938921;28;20278;-85
2022/01/31 04:06:39;;;;;;;11.00;4.15;;;;;;;4.93;66.44;96908.31;4934316;28;20745;-84
2022/01/31 04:09:05;;;;;;;17.65;5.32;;;;;;;4.67;68.17;96905.00;4917231;28;20662;-84
2022/01/31 04:11:31;;;;;;;11.07;4.32;;;;;;;4.85;67.38;96906.81;4950354;28;20212;-84
2022/01/31 04:13:56;;;;;;;11.55;4.00;;;;;;;4.81;67.44;96903.84;4934192;28;20212;-84
2022/01/31 04:16:22;;;;;;;11.68;5.00;;;;;;;4.81;67.64;96895.34;4949401;28;20196;-86
2022/01/31 04:18:47;;;;;;;10.93;4.15;;;;;;;4.75;67.95;96878.16;4945952;28;20160;-85
2022/01/31 04:21:13;;;;;;;11.18;4.20;;;;;;;4.87;67.61;96866.09;4917854;28;20216;-85
2022/01/31 04:23:39;;;;;;;11.95;3.83;;;;;;;4.93;67.53;96862.66;4949784;28;20196;-85
2022/01/31 04:26:11;;;;;;;12.98;3.90;;;;;;;4.82;67.74;96851.28;4937192;28;20202;-86
2022/01/31 04:28:43;;;;;;;;;;;;;;;;;;;;;
2022/01/31 04:33:36;;;;;;;8.32;3.90;;;;;;;4.97;67.90;96827.69;4965957;28;20161;-86
2022/01/31 04:36:02;;;;;;;11.98;4.15;;;;;;;4.83;68.10;96829.66;4934076;28;20705;-85
2022/01/31 04:38:27;;;;;;;7.10;3.25;;;;;;;5.00;68.08;96816.94;4919653;28;20094;-84
2022/01/31 04:40:53;;;;;;;9.30;3.80;;;;;;;5.10;67.16;96810.47;4933510;28;20278;-83
2022/01/31 04:43:18;;;;;;;15.95;4.13;;;;;;;4.79;68.48;96805.28;4933930;28;20098;-86
2022/01/31 04:45:47;;;;;;;9.90;3.53;;;;;;;5.00;67.92;96796.31;4933861;28;20374;-84
2022/01/31 04:48:14;;;;;;;11.70;3.95;;;;;;;4.82;68.45;96786.00;4933196;28;20764;-84
2022/01/31 04:50:40;;;;;;;10.35;3.97;;;;;;;4.96;68.19;96769.34;4949280;28;20196;-84
2022/01/31 04:53:06;;;;;;;7.57;3.25;;;;;;;4.74;68.47;96755.34;4966059;28;20195;-85
2022/01/31 04:55:31;;;;;;;12.27;4.07;;;;;;;4.84;68.28;96778.84;4930584;28;20605;-85
2022/01/31 04:57:57;;;;;;;7.35;3.72;;;;;;;4.97;68.78;96775.28;4933817;28;20197;-83
2022/01/31 05:00:22;;;;;;;10.18;3.22;;;;;;;5.03;68.46;96754.56;4918213;28;20161;-84
2022/01/31 05:02:48;;;;;;;8.50;3.40;;;;;;;4.76;69.44;96732.69;4925780;28;20593;-83
2022/01/31 05:05:13;;;;;;;11.90;4.40;;;;;;;4.75;70.33;96744.03;4934619;28;20256;-84
2022/01/31 05:07:39;;;;;;;11.93;4.10;;;;;;;4.92;69.60;96731.31;4934007;28;20332;-84
2022/01/31 05:10:05;;;;;;;11.77;3.88;;;;;;;4.91;69.65;96733.09;4918738;28;20204;-84
2022/01/31 05:12:30;;;;;;;10.57;3.53;;;;;;;5.02;69.85;96716.88;4950475;28;20286;-83
2022/01/31 05:14:55;;;;;;;9.40;3.28;;;;;;;4.77;70.80;96713.66;4964447;28;20289;-84
2022/01/31 05:17:21;;;;;;;11.60;4.35;;;;;;;4.77;70.99;96687.88;4930187;28;20173;-83
2022/01/31 05:19:46;;;;;;;10.15;3.15;;;;;;;4.50;72.26;96695.94;4934814;28;20780;-84
2022/01/31 05:22:11;;;;;;;7.38;3.22;;;;;;;4.44;72.24;96701.97;4951388;28;20204;-83
2022/01/31 05:24:37;;;;;;;9.95;3.40;;;;;;;4.62;71.73;96706.28;4949544;28;20217;-85
2022/01/31 05:27:02;;;;;;;9.30;4.15;;;;;;;4.70;71.67;96700.84;4933038;28;20750;-84
2022/01/31 05:29:28;;;;;;;8.07;3.40;;;;;;;4.79;71.53;96678.88;4954488;28;20632;-83
2022/01/31 05:31:53;;;;;;;10.57;3.60;;;;;;;4.58;71.67;96682.75;4938045;28;20235;-85
2022/01/31 05:34:20;;;;;;;8.63;3.03;;;;;;;4.74;71.34;96690.88;4971055;28;20212;-84
2022/01/31 05:36:45;;;;;;;10.57;3.58;;;;;;;4.52;71.90;96693.13;4947460;28;20297;-83
2022/01/31 05:39:11;;;;;;;8.90;4.82;;;;;;;4.48;72.40;96700.50;4937498;28;20356;-84
2022/01/31 05:41:36;;;;;;;8.13;3.47;;;;;;;4.57;72.15;96706.94;4921581;28;20376;-85
2022/01/31 05:44:02;;;;;;;10.27;3.60;;;;;;;4.58;72.61;96702.59;4953657;28;20544;-85
2022/01/31 05:46:27;;;;;;;8.52;3.80;;;;;;;4.58;72.25;96700.78;4937144;28;20102;-83
2022/01/31 05:48:53;;;;;;;7.88;2.90;;;;;;;4.45;72.36;96695.78;4949918;28;20197;-84
2022/01/31 05:51:21;;;;;;;7.47;3.63;;;;;;;4.45;72.33;96704.31;4938719;28;20208;-85
2022/01/31 05:53:48;;;;;;;7.68;3.15;;;;;;;4.66;72.68;96710.00;4937120;28;20782;-84
2022/01/31 05:56:14;;;;;;;7.07;3.42;;;;;;;4.54;73.09;96715.13;4930398;28;20334;-83
2022/01/31 05:58:40;;;;;;;6.80;3.05;;;;;;;4.67;72.24;96714.94;4936892;28;20200;-83
2022/01/31 06:01:06;;;;;;;4.95;2.88;;;;;;;4.64;72.42;96705.09;4936259;28;20166;-84
2022/01/31 06:03:32;;;;;;;8.07;3.05;;;;;;;4.60;72.79;96713.47;4935972;28;20246;-85
2022/01/31 06:05:57;;;;;;;6.35;3.08;;;;;;;4.49;72.65;96713.19;4936279;28;20384;-83
2022/01/31 06:08:22;;;;;;;5.45;2.80;;;;;;;4.50;71.99;96714.75;4952977;28;20304;-83
2022/01/31 06:10:49;;;;;;;5.13;3.50;;;;;;;4.46;72.65;96707.69;4935869;28;20724;-83
2022/01/31 06:13:23;;;;;;;10.25;2.88;;;;;;;4.42;72.80;96707.34;4935243;28;20649;-83
2022/01/31 06:15:49;;;;;;;3.23;2.57;;;;;;;4.42;73.09;96709.09;4933820;28;20242;-86
2022/01/31 06:18:14;;;;;;;5.18;2.78;;;;;;;4.30;73.42;96696.16;4950516;28;20271;-83
2022/01/31 06:20:40;;;;;;;4.22;2.03;;;;;;;4.55;71.94;96710.75;4933697;28;20200;-84
2022/01/31 06:23:06;;;;;;;4.07;2.88;;;;;;;4.59;72.47;96711.88;4949985;28;20177;-84
2022/01/31 06:25:32;;;;;;;8.77;3.35;;;;;;;4.53;71.92;96718.69;4966954;28;20079;-84
2022/01/31 06:27:57;;;;;;;6.28;2.42;;;;;;;4.52;72.72;96716.34;4939096;28;20286;-83
2022/01/31 06:30:23;;;;;;;5.75;2.80;;;;;;;4.29;73.01;96702.31;4950878;28;20187;-83
2022/01/31 06:32:48;;;;;;;5.53;2.78;;;;;;;4.46;72.83;96718.78;4950081;28;20188;-84
2022/01/31 06:35:14;;;;;;;5.13;2.38;;;;;;;4.55;73.25;96713.31;4950236;28;20337;-83
2022/01/31 06:37:40;;;;;;;4.70;2.60;;;;;;;4.47;73.16;96714.41;4933432;28;20558;-83
2022/01/31 06:40:05;;;;;;;5.30;2.83;;;;;;;4.68;72.23;96708.00;4933647;28;20255;-83
2022/01/31 06:42:31;;;;;;;5.45;3.65;;;;;;;4.36;74.05;96718.50;4951547;28;20596;-83
2022/01/31 06:44:56;;;;;;;4.03;2.30;;;;;;;4.58;73.20;96723.22;4935288;28;20220;-83
2022/01/31 06:47:23;;;;;;;4.57;2.92;;;;;;;4.68;72.58;96713.94;4934458;28;20075;-84
2022/01/31 06:49:49;;;;;;;4.05;2.50;;;;;;;4.77;71.98;96718.81;4950498;28;20650;-83
2022/01/31 06:52:14;;;;;;;3.92;2.40;;;;;;;4.75;72.81;96711.28;4951085;28;20295;-83
2022/01/31 06:54:42;;;;;;;7.60;2.88;;;;;;;4.72;72.84;96710.94;4951647;28;20288;-81
2022/01/31 06:57:08;;;;;;;3.97;2.47;;;;;;;4.79;72.52;96717.56;4931857;28;20525;-84
2022/01/31 06:59:33;;;;;;;6.43;2.60;;;;;;;4.98;72.06;96717.53;4943029;28;20216;-82
2022/01/31 07:01:58;;;;;;;4.70;2.50;;;;;;;4.90;72.33;96703.16;4929973;28;20222;-84
2022/01/31 07:04:24;;;;;;;4.15;2.20;;;;;;;4.81;73.37;96689.00;4933635;28;20292;-83
2022/01/31 07:06:49;;;;;;;4.72;2.30;;;;;;;4.84;73.23;96683.41;4930698;28;20195;-84
2022/01/31 07:09:14;;;;;;;4.25;2.50;;;;;;;4.74;74.00;96680.56;4934279;28;20279;-84
2022/01/31 07:11:42;;;;;;;5.70;2.53;;;;;;;4.90;73.43;96679.94;4934316;28;20643;-83
2022/01/31 07:14:29;;;;;;;5.20;2.78;;;;;;;5.06;73.19;96691.44;4951122;28;20271;-83
2022/01/31 07:16:53;;;;;;;4.47;2.60;;;;;;;5.02;73.67;96704.00;4943330;28;20173;-83
2022/01/31 07:19:22;;;;;;;7.55;3.72;;;;;;;5.03;73.46;96705.53;4934497;28;20234;-82
2022/01/31 07:21:49;;;;;;;4.55;3.00;;;;;;;4.95;74.22;96700.72;4949666;28;20219;-84
2022/01/31 07:24:25;;;;;;;6.78;3.20;;;;;;;5.10;73.34;96694.34;4930956;28;20201;-84
2022/01/31 07:26:51;;;;;;;4.57;3.53;;;;;;;5.18;72.84;96699.97;4935689;28;20312;-84
2022/01/31 07:29:21;;;;;;;7.30;3.47;;;;;;;5.30;72.72;96709.56;4955161;28;20627;-83
2022/01/31 07:31:47;;;;;;;6.65;3.67;;;;;;;5.42;72.67;96711.13;4925855;28;20627;-82
2022/01/31 07:34:17;;;;;;;6.25;3.45;;;;;;;5.34;73.06;96710.66;4930350;28;20208;-86
2022/01/31 07:36:44;;;;;;;6.53;3.95;;;;;;;5.42;73.13;96710.34;4951809;28;20225;-84
2022/01/31 07:39:09;;;;;;;5.05;3.17;;;;;;;5.40;73.26;96705.41;4968377;28;20099;-83
2022/01/31 07:41:35;;;;;;;6.15;3.20;;;;;;;5.44;73.00;96711.69;4935428;28;20202;-83
2022/01/31 07:44:00;;;;;;;7.45;3.55;;;;;;;5.36;72.88;96711.22;4931894;28;20566;-85
2022/01/31 07:46:26;;;;;;;6.93;3.60;;;;;;;5.37;73.15;96712.81;4944006;28;20200;-83
2022/01/31 07:48:53;;;;;;;5.38;3.45;;;;;;;5.47;72.99;96722.56;4968954;28;20200;-83
2022/01/31 07:51:19;;;;;;;4.68;3.28;;;;;;;5.49;72.98;96721.34;4951328;28;20665;-84
2022/01/31 07:53:45;;;;;;;6.07;3.80;;;;;;;5.58;72.95;96714.06;4951130;28;20208;-83
2022/01/31 07:56:11;;;;;;;7.38;3.75;;;;;;;5.73;72.28;96714.41;4948438;28;20372;-84
2022/01/31 07:58:37;;;;;;;8.98;3.40;;;;;;;5.55;72.65;96715.31;4950555;28;20192;-83
2022/01/31 08:01:04;;;;;;;6.28;3.22;;;;;;;5.46;73.38;96705.53;4967857;28;20255;-84
2022/01/31 08:03:30;;;;;;;10.93;4.68;;;;;;;5.67;72.59;96704.97;4930617;28;20160;-82
2022/01/31 08:05:55;;;;;;;4.55;3.33;;;;;;;5.67;72.55;96702.38;4948172;28;20196;-84
2022/01/31 08:08:20;;;;;;;4.55;3.42;;;;;;;5.75;71.59;96704.63;4950787;28;20185;-82
2022/01/31 08:10:46;;;;;;;4.50;3.05;;;;;;;5.80;72.37;96715.09;4966955;28;20595;-84
2022/01/31 08:13:11;;;;;;;8.88;3.30;;;;;;;5.82;72.10;96704.53;4932621;28;20291;-82
2022/01/31 08:15:46;;;;;;;6.75;3.47;;;;;;;5.99;71.96;96702.09;4967769;28;20181;-83
2022/01/31 08:18:13;;;;;;;10.85;4.00;;;;;;;5.96;71.34;96695.59;4928473;28;20161;-84
2022/01/31 08:20:38;;;;;;;4.60;2.85;;;;;;;5.76;72.27;96705.44;4952059;28;20227;-83
2022/01/31 08:23:03;;;;;;;4.10;3.15;;;;;;;5.84;71.88;96701.72;4967486;28;20211;-83
2022/01/31 08:25:35;;;;;;;7.10;3.45;;;;;;;5.96;72.27;96699.94;4967184;28;20145;-83
2022/01/31 08:28:06;;;;;;;8.98;3.42;;;;;;;5.89;72.55;96694.09;4935211;28;20467;-83
2022/01/31 08:30:38;;;;;;;6.30;3.22;;;;;;;5.69;72.34;96694.41;4946269;28;20279;-83
2022/01/31 08:33:13;;;;;;;8.77;3.25;;;;;;;5.91;72.36;96707.56;4949672;28;20109;-83
2022/01/31 08:35:48;;;;;;;6.07;3.15;;;;;;;5.98;71.80;96700.50;4934106;28;20589;-84
2022/01/31 08:38:16;;;;;;;7.38;3.25;;;;;;;5.90;72.84;96700.84;4937125;28;20408;-83
2022/01/31 08:40:42;;;;;;;6.15;3.00;;;;;;;5.89;72.41;96699.25;4934149;28;20295;-84
2022/01/31 08:43:07;;;;;;;5.88;3.50;;;;;;;5.79;72.77;96703.19;4933977;28;20211;-83
2022/01/31 08:45:35;;;;;;;5.80;3.38;;;;;;;5.96;71.70;96690.41;4950380;28;20197;-84
2022/01/31 08:48:01;;;;;;;5.65;3.80;;;;;;;5.96;71.18;96689.63;4922483;28;20282;-85
2022/01/31 08:50:30;;;;;;;5.50;2.72;;;;;;;5.82;71.73;96692.41;4965203;28;20227;-83
2022/01/31 08:52:55;;;;;;;4.80;3.17;;;;;;;5.77;71.73;96691.50;4933308;28;20214;-83
2022/01/31 08:55:21;;;;;;;4.03;2.05;;;;;;;5.92;71.75;96689.25;4930975;28;20674;-82
2022/01/31 08:57:52;;;;;;;4.35;2.53;;;;;;;6.00;71.93;96695.91;4946968;28;20192;-83
2022/01/31 09:00:17;;;;;;;3.47;2.10;;;;;;;6.13;71.09;96693.06;4960441;28;20235;-83
2022/01/31 09:02:52;;;;;;;5.18;1.92;;;;;;;6.31;71.23;96707.66;4927542;28;20286;-83
2022/01/31 09:05:17;;;;;;;5.65;2.03;;;;;;;6.22;71.38;96688.34;4950067;28;20340;-83
2022/01/31 09:07:47;;;;;;;3.97;2.17;;;;;;;5.92;71.36;96681.50;4967608;28;20303;-83
2022/01/31 09:10:12;;;;;;;4.13;2.15;;;;;;;6.07;71.19;96675.91;4967910;28;20188;-83
2022/01/31 09:12:38;;;;;;;4.60;2.40;;;;;;;6.13;71.05;96664.63;4951709;28;20203;-83
2022/01/31 09:15:06;;;;;;;4.10;2.70;;;;;;;6.26;70.96;96663.59;4969012;28;20273;-82
2022/01/31 09:17:35;;;;;;;5.57;2.40;;;;;;;6.27;71.70;96666.97;4951609;28;20642;-82
2022/01/31 09:20:00;;;;;;;4.05;2.92;;;;;;;6.17;71.43;96680.50;4953119;28;20664;-84
2022/01/31 09:22:26;;;;;;;5.80;2.80;;;;;;;6.26;71.29;96673.94;4953082;28;20173;-83
2022/01/31 09:28:32;;;;;;;8.18;3.63;;;;;;;6.21;71.69;96660.16;4970872;28;20242;-82
2022/01/31 09:30:58;;;;;;;6.55;3.53;;;;;;;6.12;72.01;96652.75;4933051;28;20739;-84
2022/01/31 09:33:25;;;;;;;5.38;2.90;;;;;;;6.33;72.02;96655.72;4952566;28;20697;-83
2022/01/31 09:35:51;;;;;;;6.53;3.35;;;;;;;6.19;72.48;96660.38;4931466;28;20189;-82
2022/01/31 09:38:18;;;;;;;5.57;3.00;;;;;;;6.26;71.56;96649.91;4939639;28;20646;-82
2022/01/31 09:40:44;;;;;;;6.30;3.00;;;;;;;6.28;72.28;96653.81;4936310;28;20445;-82
2022/01/31 09:48:31;;;;;;;6.78;2.80;;;;;;;6.29;71.95;96660.56;4967362;28;20196;-84
2022/01/31 09:51:02;;;;;;;8.43;3.67;;;;;;;5.97;71.43;96684.22;4936386;28;20192;-82
2022/01/31 09:53:32;;;;;;;6.15;2.95;;;;;;;5.88;71.59;96677.81;4941746;28;20288;-85
2022/01/31 09:55:58;;;;;;;6.00;2.90;;;;;;;6.23;71.38;96682.16;4944995;28;20575;-82
2022/01/31 09:58:29;;;;;;;4.80;3.08;;;;;;;6.34;70.89;96680.53;4934760;28;20098;-82
2022/01/31 10:01:12;;;;;;;7.03;2.90;;;;;;;6.33;70.85;96673.81;4948123;28;20158;-83
2022/01/31 10:03:48;;;;;;;5.80;2.00;;;;;;;6.24;70.37;96675.19;4945533;28;20170;-82
2022/01/31 10:06:27;;;;;;;5.75;2.63;;;;;;;6.36;70.96;96684.50;4928936;28;20536;-83
2022/01/31 10:09:09;;;;;;;4.35;1.90;;;;;;;6.25;69.82;96669.78;4919438;28;20296;-82
2022/01/31 10:11:40;;;;;;;3.72;1.80;;;;;;;6.43;69.77;96671.44;4951131;28;20244;-82
2022/01/31 10:17:02;;;;;;;3.30;2.17;;;;;;;6.44;69.82;96662.66;4962375;28;20199;-82
2022/01/31 10:19:28;;;;;;;4.93;2.10;;;;;;;6.47;70.51;96672.53;4955115;28;20212;-82
2022/01/31 10:22:00;;;;;;;4.80;1.70;;;;;;;6.37;69.05;96664.59;4945494;28;20177;-85
2022/01/31 10:24:27;;;;;;;4.53;1.80;;;;;;;6.56;69.72;96666.00;4951302;28;20180;-84
2022/01/31 10:26:53;;;;;;;4.00;1.70;;;;;;;6.69;69.23;96669.31;4950427;28;20193;-83
2022/01/31 10:29:21;;;;;;;5.40;1.85;;;;;;;6.68;68.86;96654.81;4967782;28;20236;-82
2022/01/31 10:32:11;;;;;;;4.22;1.67;;;;;;;6.23;68.24;96668.44;4934888;28;20216;-83
2022/01/31 10:34:40;;;;;;;5.00;1.60;;;;;;;6.36;69.16;96661.22;4916243;28;20297;-84
2022/01/31 10:37:15;;;;;;;4.57;1.23;;;;;;;6.18;69.33;96663.97;4965183;28;20591;-83
2022/01/31 10:50:57;;;;;;;4.20;1.10;;;;;;;6.64;67.14;96653.72;4951351;28;20631;-82
2022/01/31 10:53:22;;;;;;;5.65;1.77;;;;;;;6.66;67.69;96656.84;4934725;28;20263;-83
2022/01/31 10:55:55;;;;;;;3.85;1.08;;;;;;;6.29;66.41;96644.25;4964844;28;20456;-82
2022/01/31 10:58:20;;;;;;;4.65;1.35;;;;;;;6.69;66.66;96643.44;4951061;28;20655;-82
2022/01/31 11:00:46;;;;;;;4.65;1.20;;;;;;;6.64;67.09;96658.88;4934953;28;20208;-83
2022/01/31 11:03:32;;;;;;;5.40;1.38;;;;;;;6.84;66.40;96653.28;4950864;28;20601;-83
2022/01/31 11:06:01;;;;;;;4.53;0.98;;;;;;;7.04;65.92;96653.63;4951252;28;20236;-83
2022/01/31 11:08:27;;;;;;;3.40;0.93;;;;;;;7.09;67.12;96663.25;4934515;28;20260;-82
2022/01/31 11:10:59;;;;;;;3.30;0.88;;;;;;;6.79;64.62;96656.56;4967669;28;20251;-82
2022/01/31 11:13:31;;;;;;;5.88;0.70;;;;;;;6.72;65.35;96672.22;4962777;28;20238;-83
2022/01/31 11:15:57;;;;;;;3.33;0.80;;;;;;;7.01;64.44;96684.34;4926578;28;20295;-83
2022/01/31 11:18:23;;;;;;;2.45;0.90;;;;;;;6.90;65.13;96675.63;4934043;28;20647;-82
2022/01/31 11:20:59;;;;;;;4.43;1.10;;;;;;;6.42;66.17;96695.72;4968353;28;20149;-83
2022/01/31 11:23:28;;;;;;;4.53;0.80;;;;;;;6.62;64.10;96686.78;4915938;28;20283;-83
2022/01/31 11:25:56;;;;;;;5.07;1.13;;;;;;;6.74;65.26;96683.13;4944628;28;20220;-85
2022/01/31 11:28:22;;;;;;;2.47;0.80;;;;;;;6.60;65.01;96686.19;4935342;28;20177;-83
2022/01/31 11:30:48;;;;;;;4.47;1.58;;;;;;;6.82;65.10;96683.75;4949687;28;20161;-81
2022/01/31 11:33:14;;;;;;;2.58;1.00;;;;;;;6.88;65.03;96685.44;4950737;28;20243;-82
2022/01/31 11:35:40;;;;;;;3.42;0.68;;;;;;;6.77;65.00;96687.06;4951129;28;20254;-83
2022/01/31 11:38:05;;;;;;;2.95;1.02;;;;;;;7.01;63.74;96681.75;4961605;28;20641;-84
2022/01/31 12:57:50;;;;;;;0.95;0.40;;;;;;;7.02;59.91;96680.75;4971045;28;20994;-84
2022/01/31 13:00:38;;;;;;;3.90;0.60;;;;;;;6.97;60.20;96672.91;4953254;28;20213;-84
2022/01/31 13:03:04;;;;;;;3.83;0.68;;;;;;;7.25;59.58;96675.44;4943056;28;20029;-84
2022/01/31 13:05:34;;;;;;;2.33;0.60;;;;;;;6.89;59.12;96666.31;4970876;28;20284;-81
2022/01/31 13:08:00;;;;;;;1.67;0.50;;;;;;;7.02;59.19;96654.88;4949436;28;20278;-83
2022/01/31 13:10:25;;;;;;;3.03;0.65;;;;;;;7.25;58.33;96659.91;4971725;28;20127;-84
2022/01/31 13:13:00;;;;;;;3.33;0.93;;;;;;;6.68;58.54;96665.16;4939217;28;20230;-86
2022/01/31 13:15:25;;;;;;;4.20;1.42;;;;;;;7.37;58.53;96662.41;4972156;28;20296;-83
2022/01/31 13:17:51;;;;;;;2.10;0.47;;;;;;;7.32;58.17;96663.13;4949579;28;20356;-84
2022/01/31 13:20:16;;;;;;;3.28;0.65;;;;;;;7.43;58.54;96665.84;4936339;28;20253;-86
2022/01/31 13:22:42;;;;;;;2.05;0.75;;;;;;;6.87;58.15;96655.38;4933255;28;20192;-84
2022/01/31 13:25:12;;;;;;;5.50;1.38;;;;;;;6.88;58.25;96670.69;4972518;28;20189;-82